createdAt,value
2022-08-17T00:01:45.527Z,4.85
2022-08-17T00:04:19.183Z,4.60
2022-08-17T00:06:46.137Z,4.90
2022-08-17T00:09:18.266Z,4.97
2022-08-17T00:12:40.598Z,4.35
2022-08-17T00:14:33.275Z,4.78
2022-08-17T00:17:00.012Z,5.15
2022-08-17T00:19:26.952Z,4.88
2022-08-17T00:22:31.670Z,4.97
2022-08-17T00:24:44.172Z,4.40
2022-08-17T00:27:10.913Z,5.20
2022-08-17T00:29:37.609Z,5.22
2022-08-17T00:33:12.227Z,4.85
2022-08-17T00:34:51.471Z,4.93
2022-08-17T00:37:18.120Z,4.68
2022-08-17T00:39:44.805Z,4.72
2022-08-17T00:42:16.894Z,4.70
2022-08-17T00:44:44.600Z,5.05
2022-08-17T00:47:11.278Z,5.30
2022-08-17T00:49:37.934Z,5.25
2022-08-17T00:52:15.598Z,4.90
2022-08-17T00:54:46.860Z,4.85
2022-08-17T00:57:21.015Z,4.95
2022-08-17T01:00:01.646Z,5.10
2022-08-17T01:02:51.741Z,5.30
2022-08-17T01:05:24.081Z,5.03
2022-08-17T01:07:53.571Z,4.80
2022-08-17T01:11:00.534Z,4.35
2022-08-17T01:13:14.627Z,4.90
2022-08-17T01:15:52.100Z,4.90
2022-08-17T01:18:18.976Z,4.78
2022-08-17T01:20:49.919Z,4.60
2022-08-17T01:23:20.751Z,4.90
2022-08-17T01:25:53.930Z,4.32
2022-08-17T01:28:52.449Z,4.90
2022-08-17T01:31:08.992Z,4.97
2022-08-17T01:33:36.007Z,4.68
2022-08-17T01:36:04.102Z,5.00
2022-08-17T01:38:31.801Z,4.93
2022-08-17T01:41:06.875Z,5.28
2022-08-17T01:43:47.792Z,4.65
2022-08-17T01:46:21.010Z,4.57
2022-08-17T01:48:48.382Z,4.88
2022-08-17T01:51:16.009Z,4.97
2022-08-17T01:53:47.273Z,5.03
2022-08-17T01:56:17.314Z,4.90
2022-08-17T01:58:44.453Z,4.90
2022-08-17T02:01:14.057Z,4.75
2022-08-17T02:03:41.400Z,4.97
2022-08-17T02:06:27.783Z,5.30
2022-08-17T02:09:03.134Z,4.95
2022-08-17T02:11:33.662Z,4.93
2022-08-17T02:14:03.251Z,4.75
2022-08-17T02:16:36.636Z,4.80
2022-08-17T02:19:07.865Z,4.63
2022-08-17T02:21:35.793Z,4.88
2022-08-17T02:24:04.404Z,4.90
2022-08-17T02:26:31.816Z,4.57
2022-08-17T02:28:58.491Z,4.72
2022-08-17T02:31:25.317Z,4.72
2022-08-17T02:33:56.662Z,4.95
2022-08-17T02:36:31.800Z,4.82
2022-08-17T02:38:58.642Z,4.60
2022-08-17T02:41:25.533Z,5.18
2022-08-17T02:43:53.090Z,4.65
2022-08-17T02:46:19.822Z,4.80
2022-08-17T02:51:28.378Z,4.78
2022-08-17T02:54:05.296Z,5.00
2022-08-17T02:56:42.341Z,4.50
2022-08-17T02:59:09.034Z,4.47
2022-08-17T03:01:35.791Z,4.38
2022-08-17T03:04:02.703Z,4.88
2022-08-17T03:06:29.573Z,5.20
2022-08-17T03:08:56.194Z,5.03
2022-08-17T03:11:23.480Z,5.63
2022-08-17T03:13:51.020Z,5.00
2022-08-17T03:16:17.752Z,5.10
2022-08-17T03:18:44.373Z,5.32
2022-08-17T03:21:11.020Z,5.15
2022-08-17T03:23:42.073Z,4.40
2022-08-17T03:26:15.256Z,5.63
2022-08-17T03:28:42.128Z,5.40
2022-08-17T03:31:08.763Z,5.63
2022-08-17T03:33:35.447Z,4.82
2022-08-17T03:36:02.094Z,5.18
2022-08-17T03:38:28.785Z,5.35
2022-08-17T03:41:06.964Z,4.97
2022-08-17T03:43:34.566Z,5.45
2022-08-17T03:46:29.009Z,5.07
2022-08-17T03:49:20.971Z,4.97
2022-08-17T03:52:06.205Z,5.50
2022-08-17T03:54:51.375Z,4.93
2022-08-17T03:57:19.035Z,5.53
2022-08-17T03:59:45.886Z,5.28
2022-08-17T04:02:24.255Z,5.00
2022-08-17T04:04:52.076Z,5.00
2022-08-17T04:07:20.380Z,5.18
2022-08-17T04:09:47.564Z,5.43
2022-08-17T04:12:19.724Z,5.35
2022-08-17T04:14:53.588Z,5.38
2022-08-17T04:17:26.238Z,6.00
2022-08-17T04:19:53.684Z,5.40
2022-08-17T04:22:32.136Z,5.75
2022-08-17T04:25:02.048Z,5.55
2022-08-17T04:27:28.686Z,5.70
2022-08-17T04:29:56.136Z,5.50
2022-08-17T04:33:00.852Z,5.68
2022-08-17T04:35:09.884Z,5.22
2022-08-17T04:37:36.625Z,5.80
2022-08-17T04:40:22.541Z,5.43
2022-08-17T04:43:10.773Z,5.55
2022-08-17T04:45:55.096Z,4.93
2022-08-17T04:48:29.770Z,5.47
2022-08-17T04:51:05.792Z,5.47
2022-08-17T04:53:32.533Z,5.30
2022-08-17T04:55:59.310Z,5.70
2022-08-17T04:58:26.091Z,5.88
2022-08-17T05:00:53.189Z,5.63
2022-08-17T05:03:19.915Z,5.28
2022-08-17T05:05:49.662Z,6.25
2022-08-17T05:08:18.563Z,6.20
2022-08-17T05:10:45.987Z,6.00
2022-08-17T05:13:18.802Z,6.32
2022-08-17T05:15:47.776Z,6.25
2022-08-17T05:18:16.640Z,5.55
2022-08-17T05:20:44.357Z,5.65
2022-08-17T05:23:14.868Z,5.10
2022-08-17T05:25:46.231Z,5.68
2022-08-17T05:28:15.167Z,6.35
2022-08-17T05:30:43.842Z,6.05
2022-08-17T05:33:19.442Z,5.90
2022-08-17T05:35:49.512Z,6.40
2022-08-17T05:38:18.016Z,5.88
2022-08-17T05:40:44.987Z,5.88
2022-08-17T05:43:14.193Z,5.97
2022-08-17T05:45:56.753Z,5.85
2022-08-17T05:48:39.100Z,5.65
2022-08-17T05:51:27.523Z,5.55
2022-08-17T05:54:15.456Z,5.05
2022-08-17T05:57:17.400Z,5.55
2022-08-17T06:00:10.325Z,5.30
2022-08-17T06:02:47.879Z,5.35
2022-08-17T06:05:51.421Z,5.28
2022-08-17T06:08:48.046Z,4.90
2022-08-17T06:11:26.693Z,4.75
2022-08-17T06:14:30.537Z,4.97
2022-08-17T06:17:04.468Z,5.00
2022-08-17T06:19:47.292Z,5.10
2022-08-17T06:22:18.176Z,5.05
2022-08-17T06:24:54.058Z,5.15
2022-08-17T06:27:41.308Z,5.45
2022-08-17T06:30:14.150Z,5.32
2022-08-17T06:32:45.041Z,5.05
2022-08-17T06:35:15.451Z,4.82
2022-08-17T06:38:09.362Z,4.55
2022-08-17T06:41:12.263Z,4.85
2022-08-17T06:44:09.950Z,4.65
2022-08-17T06:46:56.187Z,5.13
2022-08-17T06:49:28.517Z,5.15
2022-08-17T06:52:45.591Z,5.53
2022-08-17T06:55:27.516Z,4.80
2022-08-17T06:58:05.860Z,5.47
2022-08-17T07:00:46.907Z,5.13
2022-08-17T07:03:37.943Z,5.63
2022-08-17T07:06:15.667Z,4.93
2022-08-17T07:09:15.339Z,5.50
2022-08-17T07:11:56.390Z,5.60
2022-08-17T07:14:36.418Z,5.68
2022-08-17T07:17:09.374Z,5.60
2022-08-17T07:19:41.010Z,5.18
2022-08-17T07:22:57.456Z,5.88
2022-08-17T07:25:21.296Z,5.25
2022-08-17T07:27:54.277Z,5.00
2022-08-17T07:30:47.081Z,5.40
2022-08-17T07:33:23.677Z,5.38
2022-08-17T07:35:50.695Z,5.53
2022-08-17T07:38:31.737Z,5.70
2022-08-17T07:41:02.084Z,4.95
2022-08-17T07:43:33.983Z,4.78
2022-08-17T07:46:38.396Z,4.53
2022-08-17T07:49:06.646Z,4.90
2022-08-17T07:51:52.949Z,5.30
2022-08-17T07:54:22.669Z,4.50
2022-08-17T07:57:00.434Z,4.78
2022-08-17T07:59:33.356Z,4.60
2022-08-17T08:02:02.265Z,4.15
2022-08-17T08:05:00.459Z,4.40
2022-08-17T08:07:34.578Z,4.28
2022-08-17T08:10:05.941Z,4.07
2022-08-17T08:12:39.225Z,4.15
2022-08-17T08:15:19.151Z,4.40
2022-08-17T08:17:54.029Z,4.03
2022-08-17T08:20:52.387Z,4.38
2022-08-17T08:23:30.547Z,4.13
2022-08-17T08:26:42.231Z,3.75
2022-08-17T08:29:28.489Z,4.13
2022-08-17T08:32:10.953Z,4.10
2022-08-17T08:35:01.617Z,4.25
2022-08-17T08:37:58.463Z,4.35
2022-08-17T08:40:35.130Z,3.85
2022-08-17T08:43:24.373Z,3.90
2022-08-17T08:46:20.550Z,4.13
2022-08-17T08:49:33.858Z,4.43
2022-08-17T08:53:02.529Z,4.03
2022-08-17T08:56:00.847Z,3.85
2022-08-17T08:58:50.397Z,3.25
2022-08-17T09:01:29.405Z,3.60
2022-08-17T09:04:27.102Z,3.50
2022-08-17T09:07:23.609Z,3.47
2022-08-17T09:10:05.399Z,3.20
2022-08-17T09:12:54.942Z,3.38
2022-08-17T09:15:39.982Z,3.15
2022-08-17T09:19:02.551Z,3.22
2022-08-17T09:21:33.716Z,3.10
2022-08-17T09:24:15.686Z,3.20
2022-08-17T09:27:26.390Z,2.92
2022-08-17T09:30:01.581Z,2.78
2022-08-17T09:32:39.099Z,2.80
2022-08-17T09:35:37.440Z,3.35
2022-08-17T09:38:40.453Z,2.90
2022-08-17T09:41:21.600Z,3.08
2022-08-17T09:44:22.527Z,2.80
2022-08-17T09:47:13.346Z,2.80
2022-08-17T09:49:42.440Z,3.17
2022-08-17T09:52:15.539Z,2.50
2022-08-17T09:54:47.049Z,2.65
2022-08-17T09:57:31.845Z,2.90
2022-08-17T10:00:16.506Z,2.63
2022-08-17T10:03:03.222Z,2.95
2022-08-17T10:05:56.951Z,2.83
2022-08-17T10:08:30.243Z,2.90
2022-08-17T10:11:27.946Z,3.17
2022-08-17T10:14:37.929Z,2.60
2022-08-17T10:17:22.258Z,3.28
2022-08-17T10:20:16.882Z,3.03
2022-08-17T10:23:15.305Z,2.90
2022-08-17T10:26:14.791Z,2.90
2022-08-17T10:28:59.215Z,3.33
2022-08-17T10:31:48.951Z,3.25
2022-08-17T10:34:47.961Z,3.42
2022-08-17T10:38:00.769Z,3.20
2022-08-17T10:41:05.812Z,3.22
2022-08-17T10:44:39.609Z,2.90
2022-08-17T10:47:02.573Z,3.28
2022-08-17T10:49:55.891Z,3.38
2022-08-17T10:52:28.633Z,3.08
2022-08-17T10:54:58.717Z,3.55
2022-08-17T10:57:57.001Z,3.22
2022-08-17T11:00:35.800Z,3.17
2022-08-17T11:03:17.929Z,3.10
2022-08-17T11:06:32.580Z,3.40
2022-08-17T11:09:23.118Z,3.20
2022-08-17T11:12:03.907Z,3.25
2022-08-17T11:15:02.291Z,3.22
2022-08-17T11:17:49.649Z,3.20
2022-08-17T11:20:41.981Z,3.25
2022-08-17T11:23:08.967Z,2.88
2022-08-17T11:26:19.494Z,2.55
2022-08-17T11:28:53.475Z,3.30
2022-08-17T11:31:46.298Z,3.30
2022-08-17T11:34:22.958Z,3.20
2022-08-17T11:37:31.828Z,3.15
2022-08-17T11:43:21.257Z,2.97
2022-08-17T11:46:22.588Z,3.45
2022-08-17T11:49:29.193Z,3.00
2022-08-17T11:52:17.263Z,3.40
2022-08-17T11:54:46.729Z,3.28
2022-08-17T11:57:27.048Z,2.90
2022-08-17T12:00:32.611Z,3.25
2022-08-17T12:03:33.458Z,3.10
2022-08-17T12:06:29.667Z,2.90
2022-08-17T12:09:21.084Z,2.90
2022-08-17T12:12:12.361Z,3.00
2022-08-17T12:15:08.780Z,3.08
2022-08-17T12:17:41.669Z,2.70
2022-08-17T12:20:25.573Z,2.85
2022-08-17T12:23:07.133Z,3.20
2022-08-17T12:26:05.860Z,2.90
2022-08-17T12:28:36.259Z,3.10
2022-08-17T12:31:07.350Z,3.10
2022-08-17T12:33:37.088Z,2.95
2022-08-17T12:36:09.495Z,2.80
2022-08-17T12:38:38.634Z,2.92
2022-08-17T12:41:26.435Z,3.17
2022-08-17T12:44:02.590Z,2.80
2022-08-17T12:46:34.875Z,3.03
2022-08-17T12:49:18.776Z,2.83
2022-08-17T12:51:48.972Z,3.05
2022-08-17T12:54:41.324Z,2.85
2022-08-17T12:57:15.913Z,3.10
2022-08-17T12:59:49.086Z,2.90
2022-08-17T13:02:32.605Z,3.15
2022-08-17T13:05:01.735Z,2.92
2022-08-17T13:07:36.291Z,3.10
2022-08-17T13:10:04.274Z,3.15
2022-08-17T13:12:35.035Z,3.15
2022-08-17T13:15:02.653Z,3.00
2022-08-17T13:17:34.722Z,3.20
2022-08-17T13:20:05.818Z,3.60
2022-08-17T13:22:32.825Z,3.10
2022-08-17T13:25:07.607Z,3.17
2022-08-17T13:27:34.695Z,3.17
2022-08-17T13:30:08.170Z,3.00
2022-08-17T13:32:48.719Z,3.03
2022-08-17T13:35:41.096Z,2.95
2022-08-17T13:38:10.674Z,3.15
2022-08-17T13:40:42.564Z,3.58
2022-08-17T13:43:10.611Z,3.15
2022-08-17T13:45:50.799Z,3.17
2022-08-17T13:48:30.794Z,3.33
2022-08-17T13:50:57.631Z,3.33
2022-08-17T13:53:24.419Z,3.10
2022-08-17T13:55:56.166Z,3.10
2022-08-17T13:58:46.204Z,3.50
2022-08-17T14:01:53.522Z,3.25
2022-08-17T14:04:24.384Z,3.50
2022-08-17T14:06:53.363Z,3.60
2022-08-17T14:09:25.464Z,3.40
2022-08-17T14:11:54.428Z,3.13
2022-08-17T14:14:23.253Z,3.15
2022-08-17T14:16:51.990Z,3.22
2022-08-17T14:19:22.029Z,3.03
2022-08-17T14:21:49.245Z,3.30
2022-08-17T14:24:26.898Z,3.30
2022-08-17T14:26:56.702Z,3.50
2022-08-17T14:29:25.921Z,3.25
2022-08-17T14:31:54.169Z,3.88
2022-08-17T14:34:24.329Z,3.47
2022-08-17T14:36:52.111Z,3.22
2022-08-17T14:39:19.477Z,4.30
2022-08-17T14:41:46.379Z,3.30
2022-08-17T14:44:13.439Z,3.80
2022-08-17T14:46:44.791Z,3.53
2022-08-17T14:49:13.231Z,3.53
2022-08-17T14:51:44.220Z,3.80
2022-08-17T14:54:29.415Z,3.97
2022-08-17T14:57:22.764Z,3.47
2022-08-17T14:59:54.707Z,3.80
2022-08-17T15:02:29.738Z,3.15
2022-08-17T15:05:04.633Z,3.28
2022-08-17T15:07:31.869Z,3.15
2022-08-17T15:10:02.662Z,3.55
2022-08-17T15:12:34.108Z,3.20
2022-08-17T15:15:04.771Z,3.22
2022-08-17T15:17:44.519Z,3.67
2022-08-17T15:20:25.371Z,3.13
2022-08-17T15:22:56.076Z,3.58
2022-08-17T15:25:31.430Z,3.53
2022-08-17T15:27:59.421Z,3.63
2022-08-17T15:30:27.212Z,3.33
2022-08-17T15:32:56.692Z,3.20
2022-08-17T15:35:27.359Z,3.40
2022-08-17T15:37:57.960Z,3.17
2022-08-17T15:40:25.271Z,3.30
2022-08-17T15:42:52.948Z,3.20
2022-08-17T15:45:24.896Z,3.50
2022-08-17T15:47:52.957Z,3.10
2022-08-17T15:50:20.155Z,3.30
2022-08-17T15:52:47.637Z,3.60
2022-08-17T15:55:15.425Z,3.78
2022-08-17T15:57:42.908Z,3.50
2022-08-17T16:00:10.643Z,3.50
2022-08-17T16:03:45.010Z,3.92
2022-08-17T16:05:28.156Z,3.65
2022-08-17T16:07:58.758Z,3.60
2022-08-17T16:10:35.303Z,3.75
2022-08-17T16:13:04.324Z,3.50
2022-08-17T16:15:32.056Z,3.60
2022-08-17T16:17:59.257Z,3.45
2022-08-17T16:20:26.306Z,3.78
2022-08-17T16:22:54.563Z,3.38
2022-08-17T16:25:53.041Z,3.58
2022-08-17T16:28:17.657Z,3.55
2022-08-17T16:30:44.691Z,3.60
2022-08-17T16:33:12.740Z,3.60
2022-08-17T16:35:39.912Z,3.50
2022-08-17T16:38:07.421Z,2.92
2022-08-17T16:40:36.186Z,3.70
2022-08-17T16:43:04.562Z,3.85
2022-08-17T16:45:40.483Z,3.58
2022-08-17T16:48:08.991Z,3.45
2022-08-17T16:50:36.582Z,3.53
2022-08-17T16:53:17.175Z,3.20
2022-08-17T16:55:45.857Z,3.55
2022-08-17T16:58:13.151Z,3.60
2022-08-17T17:00:42.009Z,3.70
2022-08-17T17:03:21.856Z,3.80
2022-08-17T17:06:18.703Z,3.60
2022-08-17T17:08:59.061Z,3.78
2022-08-17T17:11:42.601Z,3.60
2022-08-17T17:14:30.511Z,3.40
2022-08-17T17:17:05.191Z,3.85
2022-08-17T17:19:36.586Z,3.50
2022-08-17T17:23:01.402Z,3.70
2022-08-17T17:25:32.534Z,3.63
2022-08-17T17:28:42.635Z,3.70
2022-08-17T17:31:23.826Z,4.05
2022-08-17T17:33:56.397Z,4.22
2022-08-17T17:36:47.360Z,4.30
2022-08-17T17:39:54.097Z,4.82
2022-08-17T17:42:24.639Z,4.68
2022-08-17T17:45:05.070Z,4.70
2022-08-17T17:47:33.079Z,4.10
2022-08-17T17:50:02.060Z,3.85
2022-08-17T17:52:41.106Z,4.20
2022-08-17T17:55:15.869Z,3.83
2022-08-17T17:58:09.051Z,3.58
2022-08-17T18:00:52.365Z,4.05
2022-08-17T18:03:24.922Z,4.22
2022-08-17T18:06:28.157Z,4.18
2022-08-17T18:09:08.726Z,3.50
2022-08-17T18:11:44.180Z,4.28
2022-08-17T18:14:42.223Z,3.83
2022-08-17T18:17:09.128Z,4.00
2022-08-17T18:19:40.006Z,3.75
2022-08-17T18:22:15.027Z,4.15
2022-08-17T18:25:05.672Z,4.20
2022-08-17T18:27:49.513Z,4.30
2022-08-17T18:30:20.255Z,4.00
2022-08-17T18:32:47.669Z,4.30
2022-08-17T18:35:14.534Z,3.83
2022-08-17T18:37:49.020Z,4.22
2022-08-17T18:40:21.475Z,4.50
2022-08-17T18:43:00.511Z,3.88
2022-08-17T18:45:43.898Z,4.45
2022-08-17T18:48:48.553Z,4.30
2022-08-17T18:51:43.012Z,4.95
2022-08-17T18:54:25.071Z,4.78
2022-08-17T18:57:02.159Z,5.35
2022-08-17T18:59:39.104Z,4.53
2022-08-17T19:02:18.679Z,4.47
2022-08-17T19:05:17.297Z,4.07
2022-08-17T19:07:46.985Z,4.65
2022-08-17T19:10:19.958Z,5.13
2022-08-17T19:13:00.727Z,4.45
2022-08-17T19:15:35.539Z,4.68
2022-08-17T19:18:25.834Z,4.82
2022-08-17T19:21:07.773Z,4.85
2022-08-17T19:24:04.484Z,5.22
2022-08-17T19:26:53.375Z,4.93
2022-08-17T19:29:29.774Z,4.10
2022-08-17T19:32:02.543Z,4.75
2022-08-17T19:34:37.292Z,4.90
2022-08-17T19:37:31.532Z,4.40
2022-08-17T19:40:48.892Z,5.00
2022-08-17T19:43:21.151Z,4.90
2022-08-17T19:46:29.388Z,4.80
2022-08-17T19:49:09.506Z,4.78
2022-08-17T19:51:59.198Z,5.43
2022-08-17T19:54:40.617Z,4.70
2022-08-17T19:57:20.065Z,4.97
2022-08-17T20:00:17.473Z,4.90
2022-08-17T20:02:55.315Z,5.28
2022-08-17T20:06:08.815Z,5.07
2022-08-17T20:08:38.043Z,4.65
2022-08-17T20:11:20.412Z,4.63
2022-08-17T20:14:10.455Z,5.07
2022-08-17T20:16:37.659Z,5.47
2022-08-17T20:19:23.114Z,5.00
2022-08-17T20:22:04.207Z,5.22
2022-08-17T20:24:58.550Z,5.18
2022-08-17T20:27:31.803Z,5.05
2022-08-17T20:30:01.746Z,5.40
2022-08-17T20:32:52.631Z,5.35
2022-08-17T20:35:40.321Z,4.93
2022-08-17T20:38:39.534Z,5.00
2022-08-17T20:41:15.499Z,5.82
2022-08-17T20:43:47.146Z,5.00
2022-08-17T20:46:38.986Z,5.75
2022-08-17T20:49:14.940Z,22.48
2022-08-17T20:52:00.734Z,17.27
2022-08-17T20:54:44.492Z,12.32
2022-08-17T20:57:33.196Z,8.35
2022-08-17T21:00:14.213Z,7.78
2022-08-17T21:02:46.726Z,7.40
2022-08-17T21:05:34.552Z,6.25
2022-08-17T21:08:16.628Z,5.35
2022-08-17T21:10:46.533Z,5.07
2022-08-17T21:13:15.507Z,5.30
2022-08-17T21:15:54.641Z,5.10
2022-08-17T21:18:45.937Z,5.72
2022-08-17T21:21:31.786Z,5.10
2022-08-17T21:24:19.654Z,4.60
2022-08-17T21:27:30.299Z,5.50
2022-08-17T21:30:06.631Z,5.13
2022-08-17T21:32:40.496Z,5.05
2022-08-17T21:35:12.584Z,4.88
2022-08-17T21:37:44.445Z,5.10
2022-08-17T21:40:11.308Z,4.85
2022-08-17T21:42:46.547Z,5.47
2022-08-17T21:45:22.698Z,5.22
2022-08-17T21:47:52.010Z,4.72
2022-08-17T21:50:24.203Z,4.80
2022-08-17T21:52:55.903Z,5.03
2022-08-17T21:55:30.445Z,5.53
2022-08-17T21:58:14.765Z,4.90
2022-08-17T22:00:44.635Z,5.03
2022-08-17T22:03:24.330Z,5.30
2022-08-17T22:05:51.579Z,5.57
2022-08-17T22:08:22.094Z,5.18
2022-08-17T22:10:51.255Z,5.38
2022-08-17T22:13:18.289Z,5.47
2022-08-17T22:15:50.936Z,5.18
2022-08-17T22:18:27.192Z,5.30
2022-08-17T22:20:56.721Z,5.38
2022-08-17T22:23:46.236Z,4.72
2022-08-17T22:26:15.587Z,5.20
2022-08-17T22:28:42.540Z,4.65
2022-08-17T22:31:13.261Z,5.00
2022-08-17T22:33:46.891Z,5.00
2022-08-17T22:36:40.385Z,5.25
2022-08-17T22:39:08.331Z,5.00
2022-08-17T22:41:41.518Z,4.70
2022-08-17T22:44:14.082Z,4.93
2022-08-17T22:46:51.873Z,4.70
2022-08-17T22:49:29.286Z,4.40
2022-08-17T22:52:06.572Z,5.05
2022-08-17T22:54:52.626Z,4.60
2022-08-17T22:57:41.782Z,4.60
2022-08-17T23:00:39.393Z,4.55
2022-08-17T23:03:12.538Z,5.10
2022-08-17T23:05:42.965Z,4.40
2022-08-17T23:08:11.548Z,5.03
2022-08-17T23:10:42.387Z,5.00
2022-08-17T23:13:11.989Z,4.78
2022-08-17T23:15:40.999Z,4.47
2022-08-17T23:18:07.976Z,4.65
2022-08-17T23:20:37.253Z,4.65
2022-08-17T23:23:06.820Z,4.88
2022-08-17T23:25:35.101Z,4.68
2022-08-17T23:28:05.038Z,5.13
2022-08-17T23:30:35.475Z,4.68
2022-08-17T23:33:06.574Z,4.63
2022-08-17T23:35:39.868Z,5.00
2022-08-17T23:38:12.853Z,4.95
2022-08-17T23:40:40.870Z,4.97
2022-08-17T23:43:23.623Z,4.95
2022-08-17T23:45:58.535Z,5.20
2022-08-17T23:48:35.016Z,5.20
2022-08-17T23:51:10.635Z,4.35
2022-08-17T23:53:42.209Z,4.70
2022-08-17T23:56:11.187Z,4.80
2022-08-17T23:58:43.472Z,4.85
